Broadlands, Illinois
Current Conditions -  °F | °C
As of 6:53 AM on Thursday 30 Oct 2014 (Local Time) from KCMI Reporting Station
Clear Clear  
Wind Chill: 26°   Ceiling: Unl
Heat Index: 31°   Visibility: 10mi
Dew Point: 29°   Wind: 5mph
Humidity: 92%   Direction: 150°SSE
Pressure: 30.16"   Gusts: NA
Location:  39.91°N, 87.99°W
Report Text: KCMI 301153Z 15004KT 10SM CLR M01/M02 A3016 RMK AO2 SLP217 T10061017 10017 21011 58002 $
Loading
Personal Weather Stations






























Interactive Weather Map New forecast layout! Learn more

10-Day Weather Forecast

Advertisements
Track Severe Weather on mobile